• Join FlightAware (Why Join?)
  • Login
  • US Flag 
12:14AM EDT


 

Airport Tracker/Info


-or-


 

Live Flight TrackerFlight Track Log ✈ N534QS ✈ 13-May-2013 ✈ KLGA - KSEA

Flight Track Log - Related Links

Times and Time Zones

All times are in EDT time to prevent confusion due to time zone crossing. See the N534QS flight status page for this flight to view local times or setup timezone preferences in your user account.

Time Position Orientation Groundspeed Altitude Reporting Facility
EDT Latitude Longitude Course Direction KTS MPH feet Rate Location/Type
10:05AM 40.8167 -73.9000 349° North 192 221 3,500  Level New York TRACON
10:06AM 40.8833 -73.9167 349° North 244 281 7,100 3,480 Climbing New York TRACON
10:07AM 40.9333 -73.9500 333° Northwest 273 314 10,500 2,520 Climbing New York TRACON
10:09AM 41.0639 -74.1311 314° West 339 390 14,900 2,100 Climbing New York Center
10:10AM 41.0939 -74.2456 289° West 339 390 17,000 1,920 Climbing New York Center
10:11AM 41.1069 -74.3647 278° West 327 376 18,800 1,980 Climbing New York Center
10:12AM 41.1175 -74.4892 276° West 333 383 20,900 1,980 Climbing New York Center
10:13AM 41.1303 -74.6167 278° West 345 397 22,800 1,920 Climbing New York Center
10:14AM 41.1594 -74.7422 287° West 355 409 24,800 1,500 Climbing New York Center
10:15AM 41.2094 -74.8636 299° West 373 429 25,900 1,380 Climbing New York Center
10:16AM 41.2575 -74.9769 299° West 384 442 27,700 1,800 Climbing New York Center
10:17AM 41.3133 -75.1019 301° West 390 449 29,600 1,740 Climbing New York Center
10:18AM 41.3689 -75.2356 299° West 401 461 31,300 1,440 Climbing New York Center
10:19AM 41.4281 -75.3750 300° West 413 475 32,500 1,380 Climbing New York Center
10:20AM 41.4869 -75.5175 299° West 436 502 34,100 1,440 Climbing New York Center
10:21AM 41.5361 -75.6928 291° West 446 513 35,500 1,200 Climbing New York Center
10:22AM 41.5794 -75.8486 290° West 456 525 36,600 1,080 Climbing New York Center
10:23AM 41.6228 -76.0017 291° West 456 525 37,700 1,080 Climbing New York Center
10:24AM 41.6661 -76.1522 291° West 456 525 38,800 900 Climbing New York Center
10:25AM 41.7108 -76.3114 291° West 456 525 39,600 600 Climbing New York Center
10:26AM 41.7533 -76.4706 290° West 456 525 40,000 120 Climbing New York Center
10:28AM 41.8386 -76.7758 291° West 455 524 40,000  Level Cleveland Center
10:29AM 41.8856 -76.9375 291° West 465 535 40,000  Level Cleveland Center
10:30AM 41.9281 -77.0969 290° West 465 535 40,000  Level Cleveland Center
10:31AM 41.9725 -77.2594 290° West 460 529 40,000  Level Cleveland Center
10:32AM 42.0144 -77.4194 289° West 460 529 40,000  Level Cleveland Center
10:33AM 42.0583 -77.5822 290° West 460 529 40,000  Level Cleveland Center
10:34AM 42.1022 -77.7453 290° West 460 529 40,000  Level Cleveland Center
10:35AM 42.1389 -77.8892 289° West 460 529 40,000  Level Cleveland Center
10:36AM 42.1822 -78.0500 290° West 460 529 40,000  Level Cleveland Center
10:37AM 42.2231 -78.2083 289° West 460 529 40,000  Level Cleveland Center
10:38AM 42.2639 -78.3694 289° West 455 524 40,000  Level Cleveland Center
10:39AM 42.3044 -78.5281 289° West 455 524 40,000  Level Cleveland Center
10:40AM 42.3447 -78.6897 289° West 461 531 40,000  Level Cleveland Center
10:41AM 42.3847 -78.8517 289° West 461 531 40,000  Level Cleveland Center
10:42AM 42.4081 -79.0367 280° West 456 525 40,000  Level Cleveland Center
10:43AM 42.4333 -79.2131 281° West 464 534 40,000  Level Cleveland Center
10:44AM 42.4561 -79.3786 281° West 464 534 40,000  Level Cleveland Center
10:45AM 42.4825 -79.5331 283° West 469 540 40,000  Level Cleveland Center
10:46AM 42.5006 -79.7017 278° West 469 540 40,000  Level Cleveland Center
10:47AM 42.5269 -79.8733 282° West 469 540 40,000  Level Cleveland Center
10:48AM 42.5467 -80.0589 278° West 461 531 40,000  Level Cleveland Center
10:49AM 42.5681 -80.2336 279° West 472 543 40,000  Level Cleveland Center
10:50AM 42.5914 -80.4056 281° West 465 535 40,000  Level Cleveland Center
10:51AM 42.6122 -80.5719 280° West 460 529 40,000  Level Cleveland Center
10:52AM 42.6353 -80.7442 280° West 460 529 40,000  Level Cleveland Center
10:53AM 42.6597 -80.9164 281° West 466 536 40,000  Level Cleveland Center
10:54AM 42.6864 -81.0858 282° West 466 536 40,000  Level Cleveland Center
10:55AM 42.7144 -81.2558 283° West 472 543 40,000  Level Cleveland Center
10:56AM 42.7364 -81.4086 281° West 467 537 40,000  Level Cleveland Center
10:57AM 42.7642 -81.5842 282° West 472 543 40,000 120 Level Cleveland Center
10:58AM 42.7919 -81.7544 283° West 465 535 40,300 540 Climbing Cleveland Center
10:59AM 42.8189 -81.9475 281° West 470 541 41,100 780 Climbing Cleveland Center
11:00AM 42.8419 -82.1150 281° West 470 541 41,900 720 Climbing Cleveland Center
11:01AM 42.8686 -82.2856 282° West 470 541 42,600 540 Climbing Cleveland Center
11:02AM 42.8931 -82.4564 281° West 470 541 43,000 180 Climbing Cleveland Center
11:03AM 42.9172 -82.6214 281° West 464 534 43,000  Level Cleveland Center
11:04AM 42.9433 -82.7897 282° West 458 527 43,000  Level Cleveland Center
11:05AM 42.9653 -82.9550 280° West 458 527 43,000  Level Cleveland Center
11:06AM 42.9886 -83.1233 281° West 453 521 43,000  Level Cleveland Center
11:07AM 43.0139 -83.2919 282° West 448 516 43,000  Level Cleveland Center
11:08AM 43.0333 -83.4464 280° West 454 522 43,000  Level Cleveland Center
11:09AM 43.0561 -83.6150 281° West 454 522 43,000  Level Cleveland Center
11:10AM 43.0786 -83.7839 280° West 454 522 43,000  Level Cleveland Center
11:11AM 43.1008 -83.9528 280° West 448 516 43,000  Level Cleveland Center
11:13AM 43.1422 -84.2647 280° West 454 522 43,000  Level Chicago Center
11:14AM 43.1639 -84.4353 280° West 456 525 43,000  Level Chicago Center
11:15AM 43.1856 -84.6056 280° West 457 526 43,000  Level Chicago Center
11:16AM 43.2114 -84.8114 280° West 459 528 43,000  Level Chicago Center
11:17AM 43.2325 -84.9828 280° West 459 528 43,000  Level Chicago Center
11:18AM 43.2531 -85.1528 279° West 456 525 43,000  Level Chicago Center
11:19AM 43.2731 -85.3231 279° West 456 525 43,000  Level Chicago Center
11:20AM 43.2936 -85.4922 280° West 453 521 43,000  Level Chicago Center
11:21AM 43.3131 -85.6619 279° West 456 525 43,000  Level Chicago Center
11:22AM 43.3361 -85.8650 279° West 455 524 43,000  Level Chicago Center
11:23AM 43.3558 -86.0356 279° West 458 527 43,000  Level Chicago Center
11:24AM 43.3750 -86.2050 279° West 456 525 43,000  Level Chicago Center
11:25AM 43.3942 -86.3764 279° West 458 527 43,000  Level Chicago Center
11:26AM 43.4128 -86.5475 279° West 458 527 43,000  Level Chicago Center
11:27AM 43.4350 -86.7533 279° West 456 525 43,000  Level Chicago Center
11:28AM 43.4531 -86.9272 278° West 461 531 43,000  Level Chicago Center
11:29AM 43.4708 -87.1014 278° West 463 533 43,000  Level Chicago Center
11:30AM 43.4892 -87.2758 278° West 462 532 43,000  Level Chicago Center
11:31AM 43.5078 -87.4764 277° West 461 531 43,000  Level Chicago Center
11:32AM 43.5256 -87.6508 278° West 459 528 43,000  Level Chicago Center
11:33AM 43.5417 -87.8239 277° West 455 524 43,000  Level Chicago Center
11:34AM 43.5583 -87.9969 278° West 455 524 43,000  Level Chicago Center
11:35AM 43.5739 -88.1694 277° West 456 525 43,000  Level Chicago Center
11:36AM 43.5925 -88.3706 277° West 457 526 43,000  Level Chicago Center
11:37AM 43.6083 -88.5425 277° West 462 532 43,000  Level Chicago Center
11:39AM 43.6242 -88.7156 277° West 462 532 43,000  Level Chicago Center
11:40AM 43.6417 -88.8858 278° West 453 521 43,000  Level Chicago Center
11:41AM 43.6814 -89.0753 286° West 443 510 43,000  Level Chicago Center
11:42AM 43.7147 -89.2422 285° West 450 518 43,000  Level Chicago Center
11:43AM 43.7550 -89.4372 286° West 452 520 43,000  Level Minneapolis Center
11:44AM 43.7886 -89.6028 286° West 449 517 43,000  Level Minneapolis Center
11:45AM 43.8267 -89.7975 285° West 448 516 43,000  Level Minneapolis Center
11:46AM 43.8603 -89.9633 286° West 448 516 43,000  Level Minneapolis Center
11:47AM 43.8925 -90.1283 285° West 445 512 43,000  Level Minneapolis Center
11:48AM 43.9228 -90.2883 285° West 434 499 43,000  Level Minneapolis Center
11:49AM 43.9544 -90.4467 286° West 428 493 43,000  Level Minneapolis Center
11:50AM 43.9839 -90.5997 285° West 428 493 43,000  Level Minneapolis Center
11:51AM 44.0197 -90.7900 285° West 427 491 43,000  Level Minneapolis Center
11:52AM 44.0494 -90.9489 285° West 430 495 43,000  Level Minneapolis Center
11:53AM 44.0806 -91.1075 285° West 429 494 43,000  Level Minneapolis Center
11:54AM 44.1100 -91.2689 284° West 433 498 43,000  Level Minneapolis Center
11:55AM 44.1400 -91.4322 284° West 438 504 43,000  Level Minneapolis Center
11:56AM 44.1756 -91.6300 284° West 442 509 43,000  Level Minneapolis Center
11:57AM 44.2061 -91.7931 285° West 441 507 43,000  Level Minneapolis Center
11:58AM 44.2356 -91.9606 284° West 447 514 43,000  Level Minneapolis Center
11:59AM 44.2647 -92.1308 284° West 452 520 43,000  Level Minneapolis Center
12:00PM 44.2933 -92.2975 284° West 447 514 43,000  Level Minneapolis Center
12:01PM 44.3281 -92.4975 284° West 445 512 43,000  Level Minneapolis Center
12:02PM 44.3575 -92.6597 284° West 434 499 43,000  Level Minneapolis Center
12:03PM 44.3847 -92.8278 283° West 446 513 43,000  Level Minneapolis Center
12:04PM 44.4136 -92.9944 284° West 448 516 43,000  Level Minneapolis Center
12:05PM 44.4358 -93.1303 283° West 451 519 43,000  Level Minneapolis Center
12:07PM 44.4683 -93.3328 283° West 449 517 43,000  Level Minneapolis Center
12:08PM 44.5019 -93.5331 283° West 446 513 43,000  Level Minneapolis Center
12:09PM 44.5267 -93.6847 283° West 445 512 43,000  Level Minneapolis Center
12:10PM 44.5583 -93.8869 282° West 444 511 43,000  Level Minneapolis Center
12:11PM 44.5856 -94.0542 283° West 442 509 43,000 120 Level Minneapolis Center
12:12PM 44.6119 -94.2219 283° West 443 510 43,300 480 Climbing Minneapolis Center
12:13PM 44.6378 -94.3931 282° West 449 517 44,000 600 Climbing Minneapolis Center
12:14PM 44.6647 -94.5619 283° West 446 513 44,600 480 Climbing Minneapolis Center
12:15PM 44.6892 -94.7322 281° West 446 513 45,000 180 Climbing Minneapolis Center
12:16PM 44.7150 -94.9003 282° West 443 510 45,000  Level Minneapolis Center
12:17PM 44.7472 -95.1083 282° West 452 520 45,000  Level Minneapolis Center
12:18PM 44.7717 -95.2794 281° West 450 518 45,000  Level Minneapolis Center
12:19PM 44.7958 -95.4497 281° West 447 514 45,000  Level Minneapolis Center
12:20PM 44.8203 -95.6208 281° West 448 516 45,000  Level Minneapolis Center
12:21PM 44.8453 -95.7928 282° West 450 518 45,000  Level Minneapolis Center
12:22PM 44.8686 -95.9622 281° West 445 512 45,000  Level Minneapolis Center
12:23PM 44.8972 -96.1681 281° West 449 517 45,000  Level Minneapolis Center
12:24PM 44.9211 -96.3408 281° West 452 520 45,000  Level Minneapolis Center
12:25PM 44.9444 -96.5136 281° West 451 519 45,000  Level Minneapolis Center
12:26PM 44.9678 -96.6872 281° West 453 521 45,000  Level Minneapolis Center
12:27PM 44.9900 -96.8636 280° West 458 527 45,000  Level Minneapolis Center
12:28PM 45.0136 -97.0378 281° West 455 524 45,000  Level Minneapolis Center
12:29PM 45.0411 -97.2469 281° West 454 522 45,000  Level Minneapolis Center
12:30PM 45.0625 -97.4206 280° West 450 518 45,000  Level Minneapolis Center
12:31PM 45.0844 -97.5931 280° West 448 516 45,000  Level Minneapolis Center
12:32PM 45.1056 -97.7644 280° West 445 512 45,000  Level Minneapolis Center
12:33PM 45.1267 -97.9369 280° West 447 514 45,000  Level Minneapolis Center
12:34PM 45.1511 -98.1369 280° West 438 504 45,000  Level Minneapolis Center
12:35PM 45.1697 -98.3008 279° West 427 491 45,000  Level Minneapolis Center
12:36PM 45.1881 -98.4697 279° West 430 495 45,000  Level Minneapolis Center
12:37PM 45.2083 -98.6350 280° West 429 494 45,000  Level Minneapolis Center
12:38PM 45.2267 -98.8028 279° West 430 495 45,000  Level Minneapolis Center
12:39PM 45.2458 -98.9694 279° West 430 495 45,000  Level Minneapolis Center
12:41PM 45.2642 -99.1372 279° West 431 496 45,000  Level Minneapolis Center
12:42PM 45.2864 -99.3392 279° West 433 498 45,000  Level Minneapolis Center
12:43PM 45.3047 -99.5075 279° West 433 498 45,000  Level Minneapolis Center
12:44PM 45.3225 -99.6750 279° West 433 498 45,000  Level Minneapolis Center
12:45PM 45.3403 -99.8442 279° West 437 503 45,000  Level Minneapolis Center
12:46PM 45.3578 -100.0136 278° West 439 505 45,000  Level Minneapolis Center
12:47PM 45.3789 -100.2194 278° West 442 509 45,000  Level Minneapolis Center
12:48PM 45.3950 -100.3914 278° West 443 510 45,000  Level Minneapolis Center
12:49PM 45.4122 -100.5642 278° West 443 510 45,000  Level Minneapolis Center
12:50PM 45.4283 -100.7375 278° West 444 511 45,000  Level Minneapolis Center
12:51PM 45.4442 -100.9103 278° West 443 510 45,000  Level Minneapolis Center
12:52PM 45.4631 -101.1192 277° West 443 510 45,000  Level Minneapolis Center
12:53PM 45.4819 -101.2939 279° West 446 513 45,000  Level Minneapolis Center
12:54PM 45.4981 -101.4675 278° West 444 511 45,000  Level Minneapolis Center
12:55PM 45.5122 -101.6397 277° West 441 507 45,000  Level Minneapolis Center
12:56PM 45.5283 -101.8117 278° West 440 506 45,000  Level Minneapolis Center
12:57PM 45.5433 -101.9861 277° West 442 509 45,000  Level Minneapolis Center
12:58PM 45.5594 -102.1922 276° West 438 504 45,000  Level Minneapolis Center
12:59PM 45.5731 -102.3633 277° West 436 502 45,000  Level Minneapolis Center
01:00PM 45.5869 -102.5364 277° West 438 504 45,000  Level Minneapolis Center
01:01PM 45.6014 -102.7186 277° West 437 503 45,000  Level Minneapolis Center
01:02PM 45.6139 -102.8897 276° West 435 501 45,000  Level Minneapolis Center
01:03PM 45.6267 -103.0628 276° West 438 504 45,000  Level Minneapolis Center
01:04PM 45.6339 -103.1667 276° West 438 504 45,000  Level Salt Lake Center
01:05PM 45.6486 -103.3789 276° West 446 513 45,000  Level Salt Lake Center
01:06PM 45.6606 -103.5525 276° West 441 507 45,000  Level Salt Lake Center
01:07PM 45.6728 -103.7253 276° West 437 503 45,000  Level Salt Lake Center
01:08PM 45.6847 -103.8967 276° West 435 501 45,000  Level Salt Lake Center
01:09PM 45.6953 -104.0678 275° West 434 499 45,000  Level Salt Lake Center
01:10PM 45.7067 -104.2411 275° West 437 503 45,000  Level Salt Lake Center
01:11PM 45.7178 -104.4144 275° West 439 505 45,000  Level Salt Lake Center
01:12PM 45.7306 -104.6111 275° West 431 496 45,000  Level Salt Lake Center
01:13PM 45.7394 -104.7744 275° West 429 494 45,000  Level Salt Lake Center
01:14PM 45.7506 -104.9675 275° West 434 499 45,000  Level Salt Lake Center
01:15PM 45.7603 -105.1350 275° West 440 506 45,000  Level Salt Lake Center
01:16PM 45.7719 -105.3314 275° West 441 507 45,000  Level Salt Lake Center
01:17PM 45.7797 -105.4981 274° West 439 505 45,000  Level Salt Lake Center
01:18PM 45.7917 -105.6942 275° West 441 507 45,000  Level Salt Lake Center
01:19PM 45.7981 -105.8611 273° West 439 505 45,000  Level Salt Lake Center
01:20PM 45.8039 -106.0494 273° West 428 493 45,000  Level Salt Lake Center
01:21PM 45.8117 -106.2153 274° West 431 496 45,000  Level Salt Lake Center
01:22PM 45.8197 -106.3808 274° West 435 501 45,000  Level Salt Lake Center
01:24PM 45.8297 -106.5758 274° West 437 503 45,000  Level Salt Lake Center
01:25PM 45.8375 -106.7428 274° West 440 506 45,000  Level Salt Lake Center
01:26PM 45.8472 -106.9358 274° West 438 504 45,000  Level Salt Lake Center
01:27PM 45.8539 -107.1025 273° West 437 503 45,000  Level Salt Lake Center
01:28PM 45.8608 -107.2936 273° West 430 495 45,000  Level Salt Lake Center
01:29PM 45.8669 -107.4553 273° West 426 490 45,000  Level Salt Lake Center
01:30PM 45.8728 -107.6156 273° West 422 486 45,000  Level Salt Lake Center
01:31PM 45.8783 -107.8039 272° West 423 487 45,000  Level Salt Lake Center
01:32PM 45.8833 -107.9675 273° West 429 494 45,000  Level Salt Lake Center
01:33PM 45.8900 -108.1556 273° West 424 488 45,000  Level Salt Lake Center
01:34PM 45.8950 -108.3172 273° West 426 490 45,000  Level Salt Lake Center
01:35PM 45.9022 -108.5064 273° West 427 491 45,000  Level Salt Lake Center
01:36PM 45.9056 -108.6736 272° West 434 499 45,000  Level Salt Lake Center
01:37PM 45.9086 -108.8625 271° West 426 490 45,000  Level Salt Lake Center
01:38PM 45.9125 -109.0264 272° West 429 494 45,000  Level Salt Lake Center
01:39PM 45.9172 -109.2153 272° West 424 488 45,000  Level Salt Lake Center
01:40PM 45.9197 -109.3789 271° West 428 493 45,000  Level Salt Lake Center
01:41PM 45.9228 -109.5436 272° West 431 496 45,000 240 Level Salt Lake Center
01:42PM 45.9258 -109.7319 271° West 423 487 45,600 480 Climbing Salt Lake Center
01:43PM 45.9278 -109.8972 271° West 432 497 46,000 480 Climbing Salt Lake Center
01:44PM 45.9306 -110.0878 271° West 429 494 46,600 480 Climbing Salt Lake Center
01:45PM 45.9322 -110.2519 271° West 430 495 47,000 180 Climbing Salt Lake Center
01:46PM 45.9342 -110.4475 271° West 437 503 47,000  Level Salt Lake Center
01:47PM 45.9358 -110.6178 271° West 444 511 47,000  Level Salt Lake Center
01:48PM 45.9369 -110.7953 271° West 446 513 47,000  Level Salt Lake Center
01:49PM 45.9378 -110.9681 270° West 439 505 47,000  Level Salt Lake Center
01:50PM 45.9392 -111.1733 271° West 438 504 47,000  Level Salt Lake Center
01:51PM 45.9394 -111.3481 270° West 445 512 47,000  Level Salt Lake Center
01:52PM 45.9386 -111.5242 270° West 447 514 47,000  Level Salt Lake Center
01:53PM 45.9381 -111.7008 270° West 444 511 47,000  Level Salt Lake Center
01:54PM 45.9381 -111.8769 270° West 444 511 47,000  Level Salt Lake Center
01:55PM 45.9369 -112.0931 270° West 449 517 47,000  Level Salt Lake Center
01:56PM 45.9358 -112.2719 270° West 449 517 47,000  Level Salt Lake Center
01:58PM 45.9344 -112.4525 269° West 452 520 47,000  Level Salt Lake Center
01:59PM 45.9319 -112.6353 269° West 458 527 47,000  Level Salt Lake Center
02:00PM 45.9303 -112.8136 269° West 449 517 47,000  Level Salt Lake Center
02:01PM 45.9289 -112.9917 269° West 446 513 47,000  Level Salt Lake Center
02:02PM 45.9264 -113.1708 269° West 450 518 47,000  Level Salt Lake Center
02:03PM 45.9231 -113.3842 269° West 448 516 47,000  Level Salt Lake Center
02:04PM 45.9206 -113.5611 269° West 445 512 47,000  Level Salt Lake Center
02:05PM 45.9214 -113.7178 270° West 446 513 47,000  Level Salt Lake Center
02:06PM 45.9492 -113.9308 281° West 452 520 47,000  Level Salt Lake Center
02:07PM 45.9711 -114.1083 280° West 452 520 47,000  Level Salt Lake Center
02:08PM 45.9931 -114.2858 280° West 452 520 47,000  Level Salt Lake Center
02:09PM 46.0133 -114.4578 280° West 450 518 47,000  Level Salt Lake Center
02:10PM 46.0372 -114.6578 280° West 454 522 47,000  Level Salt Lake Center
02:10PM 46.0439 -114.7156 279° West 453 521 47,000  Level Seattle Center
02:11PM 46.0681 -114.9172 280° West 457 526 47,000  Level Seattle Center
02:12PM 46.0797 -115.0269 279° West 450 518 47,000  Level Salt Lake Center
02:13PM 46.0989 -115.1939 279° West 445 512 47,000  Level Salt Lake Center
02:13PM 46.1094 -115.2822 280° West 448 516 47,000  Level Seattle Center
02:14PM 46.1283 -115.4525 279° West 450 518 47,000  Level Seattle Center
02:15PM 46.1475 -115.6194 279° West 445 512 47,000  Level Seattle Center
02:16PM 46.1672 -115.8108 279° West 443 510 47,000  Level Seattle Center
02:17PM 46.1861 -115.9889 279° West 448 516 47,000  Level Seattle Center
02:18PM 46.2050 -116.1675 279° West 450 518 47,000  Level Seattle Center
02:19PM 46.2239 -116.3536 278° West 448 516 47,000  Level Seattle Center
02:20PM 46.2411 -116.5239 278° West 450 518 47,000  Level Seattle Center
02:21PM 46.2625 -116.7242 279° West 452 520 47,000  Level Seattle Center
02:23PM 46.2883 -116.8961 282° West 457 526 47,000  Level Seattle Center
02:24PM 46.3133 -117.0650 282° West 451 519 47,000  Level Seattle Center
02:25PM 46.3425 -117.2603 282° West 446 513 47,000  Level Seattle Center
02:26PM 46.3647 -117.4136 282° West 449 517 47,000  Level Seattle Center
02:27PM 46.3894 -117.5894 282° West 448 516 47,000  Level Seattle Center
02:28PM 46.4133 -117.7639 281° West 444 511 47,000  Level Seattle Center
02:29PM 46.4422 -117.9697 282° West 437 503 47,000  Level Seattle Center
02:30PM 46.4653 -118.1436 281° West 441 507 47,000  Level Seattle Center
02:31PM 46.4900 -118.3183 282° West 443 510 47,000  Level Seattle Center
02:32PM 46.5131 -118.4931 281° West 442 509 47,000  Level Seattle Center
02:33PM 46.5356 -118.6661 281° West 439 505 47,000  Level Seattle Center
02:34PM 46.5578 -118.8386 281° West 437 503 47,000 -420 Level Seattle Center
02:36PM 46.6019 -119.1839 281° West 441 507 45,800 -1,020 Descending Seattle Center
02:37PM 46.6250 -119.3617 281° West 450 518 43,900 -2,040 Descending Seattle Center
02:38PM 46.6500 -119.5644 280° West 431 496 41,700 -1,980 Descending Seattle Center
02:39PM 46.6689 -119.7269 280° West 414 476 39,900 -1,800 Descending Seattle Center
02:40PM 46.6881 -119.8892 280° West 410 472 38,100 -1,860 Descending Seattle Center
02:41PM 46.7072 -120.0506 280° West 408 470 36,200 -1,860 Descending Seattle Center
02:42PM 46.7264 -120.2161 280° West 414 476 34,400 -1,800 Descending Seattle Center
02:43PM 46.7464 -120.3783 280° West 410 472 32,600 -1,800 Descending Seattle Center
02:44PM 46.7644 -120.5458 279° West 415 478 30,800 -1,800 Descending Seattle Center
02:45PM 46.7808 -120.7061 279° West 408 470 29,000 -1,740 Descending Seattle Center
02:46PM 46.8000 -120.8564 281° West 388 447 27,300 -1,680 Descending Seattle Center
02:47PM 46.8367 -121.0061 290° West 398 458 25,600 -1,740 Descending Seattle Center
02:48PM 46.9008 -121.1475 304° West 416 479 23,800 -1,980 Descending Seattle Center
02:49PM 46.9769 -121.3078 305° West 403 464 21,600 -2,040 Descending Seattle Center
02:50PM 47.0161 -121.3900 305° West 396 456 20,500 -1,680 Descending Seattle Center
02:50PM 47.0381 -121.4389 303° West 394 453 19,900 -1,620 Descending Seattle Center
02:51PM 47.0889 -121.5481 304° West 341 392 18,400 -1,500 Descending Seattle Center
02:52PM 47.1419 -121.6653 304° West 317 365 17,000 -1,440 Descending Seattle Center
02:53PM 47.1950 -121.7828 304° West 317 365 15,400 -1,260 Descending Seattle Center
02:54PM 47.2444 -121.8872 305° West 315 362 14,400 -1,080 Descending Seattle Center
02:55PM 47.2978 -122.0031 304° West 318 366 13,300 -1,080 Descending Seattle Center
02:56PM 47.3464 -122.1106 304° West 315 362 12,300 -900 Descending Seattle Center
02:57PM 47.4058 -122.1858 319° Northwest 306 352 11,500 -1,140 Descending Seattle Center
02:58PM 47.4914 -122.1811 North 310 357 10,000 -1,560 Descending Seattle Center
02:59PM 47.5750 -122.1761 North 285 328 8,400 -1,740 Descending Seattle Center
03:00PM 47.6542 -122.1703 North 285 328 6,500 -1,800 Descending Seattle Center
03:01PM 47.7228 -122.1906 349° North 258 297 4,900 -1,200 Descending Seattle Center
03:02PM 47.7275 -122.2703 275° West 182 209 4,100 -480 Descending Seattle Center
03:03PM 47.6975 -122.3100 222° Southwest 154 177 4,000 -60 Descending Seattle Center
03:04PM 47.6547 -122.3172 186° South 142 163 4,000 -420 Level Seattle Center
03:05PM 47.6125 -122.3175 180° South 156 180 3,200 -840 Descending Seattle Center
03:06PM 47.5686 -122.3189 181° South 161 185 2,400 -840 Descending Seattle Center
03:07PM 47.5264 -122.3192 180° South 162 186 1,600 -840 Descending Seattle Center
03:08PM 47.4814 -122.3175 179° South 138 159 800 -540 Descending Seattle Center
03:09PM 47.4511 -122.3200 183° South 90 104 400 -240 Descending Seattle Center
03:10PM 47.4411 -122.3175 170° South 45 52 400  Level Seattle Center